Portada
METAR-TAF:

METAR-TAF

Aeropuertos :

Paganella, Italia

latitud: 46-09N, longitud: 011-02E, altitud: 2125 m

Observación

El informe se hizo hace 32 minutos, a las 12:55 UTC
Viento 4 kt del sur-suroeste
Temperatura -4°C
Humedad 93%
Presión 1020 hPa
Visibilidad 10 km o más
Escasas nubes a una altura de 500 ft

METAR: LIVP 171255Z 21004KT 9999 FEW005 M04/M05 Q1020 RMK FEW MON LIB VAL NIL VIS MIN 9999

Hora: 14:27 (13:27 UTC)


TAF: falta

Observaciones y pronósticos meteorológicos de más de 4000 aeropuertos (mensajes METAR y TAF).

Los puntos amarillos y rojos representan las estaciones disponibles.

Ponga el ratón en el punto deseado para ver el nombre de la estación.

Haga clic para ver las observaciones y los pronósticos meteorológicos.

Para cambiar el mapa : haga clic en los botones verdes con una cruz de color negro para hacer un zoom, en el botón verde con un guión para alejar o en las flechas verdes para mapas adyacentes.


METAR-TAF: